Carnival Liberty — HPYE — position and weather

sailwx.info

Track history (hours):
 
Tides and Currents Weather Stations Pressure Air Temp Water Temp Dewpoint Dewpoint Depression Visibility Wind Speed Wind Dir Waves Ship Positions

Carnival Liberty

Last reported at 2016-Feb-14 03:32 UTC. Time now 2016-Feb-14 12:29 UTC.
Position N 18°10' W 064°55'.

Type: Ship. MMSI: 371083000.

Date/timePositionNaut miles runAvg speedWind from/ knotsBaromVisibWave heightAir tempDewpointWater temp
2016-Feb-14 03:32N 18°10' W 064°55'107 8.6
2016-Feb-13 15:05N 18°01' W 063°03'0 0.0
2016-Feb-13 14:29N 18°01' W 063°03'0 0.0
2016-Feb-13 13:20N 18°01' W 063°03'0 0.0
2016-Feb-13 12:31N 18°01' W 063°03'0 0.0
2016-Feb-13 11:31N 18°01' W 063°03'0 0.1
2016-Feb-13 10:33N 18°01' W 063°03'8 7.7
2016-Feb-13 09:33N 18°01' W 063°11'8 8.2
2016-Feb-13 08:34N 18°03' W 063°19'9 9.0
2016-Feb-13 07:33N 18°06' W 063°28'11 8.1
2016-Feb-13 06:11N 18°07' W 063°40'6 9.1
2016-Feb-13 05:33N 18°02' W 063°40'8 8.2
2016-Feb-13 04:33N 17°59' W 063°32'9 8.9
2016-Feb-13 03:33N 17°57' W 063°22'9 9.5
2016-Feb-13 02:33N 17°51' W 063°15'9 9.3
2016-Feb-13 01:32N 17°44' W 063°08'10 9.4
2016-Feb-13 00:28N 17°34' W 063°06'59 3.7
2016-Feb-12 08:20N 16°44' W 062°33'1417.0
2016-Feb-12 07:32N 16°32' W 062°26'  
2016-Feb-08 23:11N 18°03' W 064°39'1016.3
2016-Feb-08 22:33N 18°07' W 064°49'10 0.2
2016-Feb-07 03:33N 18°11' W 064°59'  
Track history (hours):
 
Tides and Currents Weather Stations Pressure Air Temp Water Temp Dewpoint Dewpoint Depression Visibility Wind Speed Wind Dir Waves Ship Positions

Carnival Liberty

Last reported at 2016-Feb-14 03:32 UTC. Time now 2016-Feb-14 12:29 UTC.
Position N 18°10' W 064°55'.

Type: Ship. MMSI: 371083000.

Date/timePositionNaut miles runAvg speedWind from/ knotsBaromVisibWave heightAir tempDewpointWater temp
2016-Feb-14 03:32N 18°10' W 064°55'107 8.6
2016-Feb-13 15:05N 18°01' W 063°03'0 0.0
2016-Feb-13 14:29N 18°01' W 063°03'0 0.0
2016-Feb-13 13:20N 18°01' W 063°03'0 0.0
2016-Feb-13 12:31N 18°01' W 063°03'0 0.0
2016-Feb-13 11:31N 18°01' W 063°03'0 0.1
2016-Feb-13 10:33N 18°01' W 063°03'8 7.7
2016-Feb-13 09:33N 18°01' W 063°11'8 8.2
2016-Feb-13 08:34N 18°03' W 063°19'9 9.0
2016-Feb-13 07:33N 18°06' W 063°28'11 8.1
2016-Feb-13 06:11N 18°07' W 063°40'6 9.1
2016-Feb-13 05:33N 18°02' W 063°40'8 8.2
2016-Feb-13 04:33N 17°59' W 063°32'9 8.9
2016-Feb-13 03:33N 17°57' W 063°22'9 9.5
2016-Feb-13 02:33N 17°51' W 063°15'9 9.3
2016-Feb-13 01:32N 17°44' W 063°08'10 9.4
2016-Feb-13 00:28N 17°34' W 063°06'59 3.7
2016-Feb-12 08:20N 16°44' W 062°33'1417.0
2016-Feb-12 07:32N 16°32' W 062°26'  
2016-Feb-08 23:11N 18°03' W 064°39'1016.3
2016-Feb-08 22:33N 18°07' W 064°49'10 0.2
2016-Feb-07 03:33N 18°11' W 064°59'  

Dump ship's entire track history